createdAt,value
2023-08-01T00:00:50.402Z,0.00
2023-08-01T00:01:50.342Z,0.00
2023-08-01T00:02:50.316Z,0.00
2023-08-01T00:03:50.284Z,0.00
2023-08-01T00:04:50.238Z,0.00
2023-08-01T00:05:50.965Z,0.00
2023-08-01T00:06:50.212Z,0.00
2023-08-01T00:07:50.179Z,0.00
2023-08-01T00:08:50.158Z,0.00
2023-08-01T00:09:50.140Z,0.00
2023-08-01T00:10:50.121Z,0.00
2023-08-01T00:11:50.096Z,0.00
2023-08-01T00:12:50.092Z,0.00
2023-08-01T00:13:50.065Z,0.00
2023-08-01T00:14:50.059Z,0.00
2023-08-01T00:16:06.643Z,0.00
2023-08-01T00:16:50.025Z,0.00
2023-08-01T00:17:50.021Z,0.00
2023-08-01T00:18:49.966Z,0.00
2023-08-01T00:19:49.941Z,0.00
2023-08-01T00:20:49.923Z,0.00
2023-08-01T00:21:49.918Z,0.00
2023-08-01T00:22:49.876Z,0.00
2023-08-01T00:23:49.866Z,0.00
2023-08-01T00:24:49.842Z,0.00
2023-08-01T00:25:49.821Z,0.00
2023-08-01T00:26:49.798Z,0.00
2023-08-01T00:27:49.778Z,0.00
2023-08-01T00:28:49.765Z,0.00
2023-08-01T00:29:49.750Z,0.00
2023-08-01T00:30:49.731Z,0.00
2023-08-01T00:31:49.789Z,0.00
2023-08-01T00:32:49.714Z,0.00
2023-08-01T00:33:49.666Z,0.00
2023-08-01T00:34:49.648Z,0.00
2023-08-01T00:35:49.609Z,0.00
2023-08-01T00:36:49.619Z,0.00
2023-08-01T00:37:49.581Z,0.00
2023-08-01T00:38:49.569Z,0.00
2023-08-01T00:39:49.549Z,0.00
2023-08-01T00:40:49.527Z,0.00
2023-08-01T00:41:49.500Z,0.00
2023-08-01T00:42:49.478Z,0.00
2023-08-01T00:43:49.475Z,0.00
2023-08-01T00:44:49.442Z,0.00
2023-08-01T00:45:49.474Z,0.00
2023-08-01T00:46:49.401Z,0.00
2023-08-01T00:47:49.414Z,0.00
2023-08-01T00:48:49.364Z,0.00
2023-08-01T00:49:49.350Z,0.00
2023-08-01T00:50:49.321Z,0.00
2023-08-01T00:51:49.305Z,0.00
2023-08-01T00:52:49.295Z,0.00
2023-08-01T00:53:49.259Z,0.00
2023-08-01T00:54:49.246Z,0.00
2023-08-01T00:55:49.216Z,0.00
2023-08-01T00:56:49.199Z,0.00
2023-08-01T00:57:49.188Z,0.00
2023-08-01T00:58:49.164Z,0.00
2023-08-01T00:59:49.158Z,0.00
2023-08-01T01:00:49.186Z,0.00
2023-08-01T01:01:49.100Z,0.00
2023-08-01T01:02:49.097Z,0.00
2023-08-01T01:03:49.068Z,0.00
2023-08-01T01:04:49.050Z,0.00
2023-08-01T01:05:49.020Z,0.00
2023-08-01T01:06:49.012Z,0.00
2023-08-01T01:07:48.985Z,0.00
2023-08-01T01:08:48.962Z,0.00
2023-08-01T01:09:48.944Z,0.00
2023-08-01T01:10:48.925Z,0.00
2023-08-01T01:11:49.418Z,0.00
2023-08-01T01:12:49.014Z,0.00
2023-08-01T01:13:48.920Z,0.00
2023-08-01T01:14:48.854Z,0.00
2023-08-01T01:15:48.854Z,0.00
2023-08-01T01:16:48.859Z,0.00
2023-08-01T01:17:48.803Z,0.00
2023-08-01T01:18:48.762Z,0.00
2023-08-01T01:19:48.735Z,0.00
2023-08-01T01:20:48.733Z,0.00
2023-08-01T01:21:48.701Z,0.00
2023-08-01T01:22:48.685Z,0.00
2023-08-01T01:23:48.720Z,0.00
2023-08-01T01:24:48.653Z,0.00
2023-08-01T01:25:48.644Z,0.00
2023-08-01T01:26:48.603Z,0.00
2023-08-01T01:27:48.614Z,0.00
2023-08-01T01:28:48.580Z,0.00
2023-08-01T01:29:48.577Z,0.00
2023-08-01T01:30:48.600Z,0.00
2023-08-01T01:31:48.517Z,0.00
2023-08-01T01:32:48.505Z,0.00
2023-08-01T01:33:48.474Z,0.00
2023-08-01T01:34:48.463Z,0.00
2023-08-01T01:35:48.431Z,0.00
2023-08-01T01:36:48.411Z,0.00
2023-08-01T01:37:48.438Z,0.00
2023-08-01T01:38:48.384Z,0.00
2023-08-01T01:39:48.356Z,0.00
2023-08-01T01:40:48.346Z,0.00
2023-08-01T01:41:48.317Z,0.00
2023-08-01T01:42:48.290Z,0.00
2023-08-01T01:43:48.274Z,0.00
2023-08-01T01:44:48.252Z,0.00
2023-08-01T01:45:48.226Z,0.00
2023-08-01T01:46:48.243Z,0.00
2023-08-01T01:47:48.211Z,0.00
2023-08-01T01:48:48.174Z,0.00
2023-08-01T01:49:48.152Z,0.00
2023-08-01T01:50:48.138Z,0.00
2023-08-01T01:51:48.108Z,0.00
2023-08-01T01:52:48.095Z,0.00
2023-08-01T01:53:48.077Z,0.00
2023-08-01T01:54:48.068Z,0.00
2023-08-01T01:55:48.053Z,0.00
2023-08-01T01:56:48.026Z,0.00
2023-08-01T01:57:47.992Z,0.00
2023-08-01T01:58:47.976Z,0.00
2023-08-01T01:59:47.958Z,0.00
2023-08-01T02:00:48.000Z,0.00
2023-08-01T02:01:47.936Z,0.00
2023-08-01T02:02:47.953Z,0.00
2023-08-01T02:03:47.880Z,0.00
2023-08-01T02:04:47.931Z,0.00
2023-08-01T02:05:47.859Z,0.00
2023-08-01T02:06:47.814Z,0.00
2023-08-01T02:07:47.837Z,0.00
2023-08-01T02:08:47.822Z,0.00
2023-08-01T02:09:47.761Z,0.00
2023-08-01T02:10:47.745Z,0.00
2023-08-01T02:11:47.717Z,0.00
2023-08-01T02:12:47.729Z,0.00
2023-08-01T02:13:47.688Z,0.00
2023-08-01T02:14:47.670Z,0.00
2023-08-01T02:15:47.641Z,0.00
2023-08-01T02:16:47.646Z,0.00
2023-08-01T02:17:47.706Z,0.00
2023-08-01T02:18:47.618Z,0.00
2023-08-01T02:19:47.556Z,0.00
2023-08-01T02:20:47.594Z,0.00
2023-08-01T02:21:47.532Z,0.00
2023-08-01T02:22:47.528Z,0.00
2023-08-01T02:23:47.521Z,0.00
2023-08-01T02:24:47.480Z,0.00
2023-08-01T02:25:47.448Z,0.00
2023-08-01T02:26:47.431Z,0.00
2023-08-01T02:27:47.439Z,0.00
2023-08-01T02:28:47.391Z,0.00
2023-08-01T02:29:47.964Z,0.00
2023-08-01T02:30:47.348Z,0.00
2023-08-01T02:31:47.378Z,0.00
2023-08-01T02:32:47.357Z,0.00
2023-08-01T02:33:47.314Z,0.00
2023-08-01T02:34:47.297Z,0.00
2023-08-01T02:35:47.271Z,0.00
2023-08-01T02:36:47.226Z,0.00
2023-08-01T02:37:47.216Z,0.00
2023-08-01T02:38:47.201Z,0.00
2023-08-01T02:39:47.181Z,0.00
2023-08-01T02:40:47.148Z,0.00
2023-08-01T02:41:47.134Z,0.00
2023-08-01T02:42:47.114Z,0.00
2023-08-01T02:43:47.104Z,0.00
2023-08-01T02:44:47.068Z,0.00
2023-08-01T02:45:47.113Z,0.00
2023-08-01T02:46:47.046Z,0.00
2023-08-01T02:47:47.098Z,0.00
2023-08-01T02:48:46.995Z,0.00
2023-08-01T02:49:46.971Z,0.00
2023-08-01T02:50:46.985Z,0.00
2023-08-01T02:51:46.927Z,0.00
2023-08-01T02:52:46.922Z,0.00
2023-08-01T02:53:46.901Z,0.00
2023-08-01T02:54:46.893Z,0.00
2023-08-01T02:55:46.859Z,0.00
2023-08-01T02:56:46.828Z,0.00
2023-08-01T02:57:46.852Z,0.00
2023-08-01T02:58:46.785Z,0.00
2023-08-01T02:59:46.775Z,0.00
2023-08-01T03:00:46.758Z,0.00
2023-08-01T03:01:46.808Z,0.00
2023-08-01T03:02:46.758Z,0.00
2023-08-01T03:03:47.607Z,0.00
2023-08-01T03:04:47.424Z,0.00
2023-08-01T03:05:46.660Z,0.00
2023-08-01T03:06:46.629Z,0.00
2023-08-01T03:07:46.613Z,0.00
2023-08-01T03:08:46.623Z,0.00
2023-08-01T03:09:46.598Z,0.00
2023-08-01T03:10:46.555Z,0.00
2023-08-01T03:11:46.551Z,0.00
2023-08-01T03:12:46.509Z,0.00
2023-08-01T03:13:46.496Z,0.00
2023-08-01T03:14:46.511Z,0.00
2023-08-01T03:15:46.477Z,0.00
2023-08-01T03:16:46.432Z,0.00
2023-08-01T03:17:46.434Z,0.00
2023-08-01T03:18:46.404Z,0.00
2023-08-01T03:19:46.368Z,0.00
2023-08-01T03:20:46.349Z,0.00
2023-08-01T03:21:46.356Z,0.00
2023-08-01T03:22:46.317Z,0.00
2023-08-01T03:23:46.288Z,0.00
2023-08-01T03:24:46.292Z,0.00
2023-08-01T03:25:46.283Z,0.00
2023-08-01T03:26:46.237Z,0.00
2023-08-01T03:27:46.296Z,0.00
2023-08-01T03:28:46.206Z,0.00
2023-08-01T03:29:46.182Z,0.00
2023-08-01T03:30:46.157Z,0.00
2023-08-01T03:31:46.147Z,0.00
2023-08-01T03:32:46.180Z,0.00
2023-08-01T03:33:46.140Z,0.00
2023-08-01T03:34:46.126Z,0.00
2023-08-01T03:35:46.085Z,0.00
2023-08-01T03:36:46.991Z,0.00
2023-08-01T03:37:46.072Z,0.00
2023-08-01T03:38:45.993Z,0.00
2023-08-01T03:39:45.982Z,0.00
2023-08-01T03:40:45.972Z,0.00
2023-08-01T03:41:45.959Z,0.00
2023-08-01T03:42:45.918Z,0.00
2023-08-01T03:43:45.924Z,0.00
2023-08-01T03:44:45.884Z,0.00
2023-08-01T03:45:45.884Z,0.00
2023-08-01T03:46:45.862Z,0.00
2023-08-01T03:47:45.845Z,0.00
2023-08-01T03:48:45.805Z,0.00
2023-08-01T03:49:45.799Z,0.00
2023-08-01T03:50:45.763Z,0.00
2023-08-01T03:51:45.751Z,0.00
2023-08-01T03:52:45.714Z,0.00
2023-08-01T03:53:47.330Z,0.00
2023-08-01T03:54:45.677Z,0.00
2023-08-01T03:55:45.669Z,0.00
2023-08-01T03:56:46.486Z,0.00
2023-08-01T03:57:45.639Z,0.00
2023-08-01T03:58:45.611Z,0.00
2023-08-01T03:59:45.579Z,0.00
2023-08-01T04:00:45.564Z,0.00
2023-08-01T04:01:45.557Z,0.00
2023-08-01T04:02:48.722Z,0.00
2023-08-01T04:03:45.538Z,0.00
2023-08-01T04:04:45.503Z,0.00
2023-08-01T04:05:45.474Z,0.00
2023-08-01T04:06:45.442Z,0.00
2023-08-01T04:07:45.433Z,0.00
2023-08-01T04:08:45.405Z,0.00
2023-08-01T04:09:45.395Z,0.00
2023-08-01T04:10:45.384Z,0.00
2023-08-01T04:11:45.357Z,0.00
2023-08-01T04:12:45.337Z,0.00
2023-08-01T04:13:45.310Z,0.00
2023-08-01T04:14:45.310Z,0.00
2023-08-01T04:15:45.297Z,0.00
2023-08-01T04:16:45.267Z,0.00
2023-08-01T04:17:45.392Z,0.00
2023-08-01T04:18:45.236Z,5.63
2023-08-01T04:19:45.191Z,5.63
2023-08-01T04:20:45.179Z,5.63
2023-08-01T04:21:45.164Z,5.63
2023-08-01T04:22:45.131Z,5.63
2023-08-01T04:23:45.120Z,5.63
2023-08-01T04:24:45.104Z,5.63
2023-08-01T04:25:45.091Z,5.63
2023-08-01T04:26:45.048Z,5.63
2023-08-01T04:27:45.041Z,5.63
2023-08-01T04:28:45.025Z,5.63
2023-08-01T04:29:45.000Z,5.63
2023-08-01T04:30:44.975Z,5.63
2023-08-01T04:31:44.962Z,5.63
2023-08-01T04:32:44.976Z,5.63
2023-08-01T04:33:44.919Z,5.63
2023-08-01T04:34:44.913Z,11.25
2023-08-01T04:35:45.666Z,11.25
2023-08-01T04:36:44.869Z,11.25
2023-08-01T04:37:44.886Z,16.88
2023-08-01T04:38:44.809Z,16.88
2023-08-01T04:39:44.800Z,11.25
2023-08-01T04:40:44.791Z,5.63
2023-08-01T04:41:44.764Z,5.63
2023-08-01T04:42:44.734Z,11.25
2023-08-01T04:43:44.720Z,11.25
2023-08-01T04:44:44.709Z,11.25
2023-08-01T04:45:44.681Z,11.25
2023-08-01T04:46:44.810Z,11.25
2023-08-01T04:47:44.698Z,11.25
2023-08-01T04:48:44.637Z,11.25
2023-08-01T04:49:44.598Z,11.25
2023-08-01T04:50:44.580Z,11.25
2023-08-01T04:51:44.564Z,5.63
2023-08-01T04:52:44.537Z,11.25
2023-08-01T04:53:44.522Z,11.25
2023-08-01T04:54:44.505Z,11.25
2023-08-01T04:55:44.486Z,11.25
2023-08-01T04:56:44.487Z,11.25
2023-08-01T04:57:44.470Z,11.25
2023-08-01T04:58:44.438Z,11.25
2023-08-01T04:59:44.399Z,16.88
2023-08-01T05:00:44.397Z,11.25
2023-08-01T05:01:44.362Z,11.25
2023-08-01T05:02:44.423Z,11.25
2023-08-01T05:03:44.452Z,16.88
2023-08-01T05:04:44.300Z,16.88
2023-08-01T05:05:44.288Z,16.88
2023-08-01T05:06:44.262Z,16.88
2023-08-01T05:07:44.254Z,16.88
2023-08-01T05:08:44.231Z,16.88
2023-08-01T05:09:44.203Z,16.88
2023-08-01T05:10:44.218Z,16.88
2023-08-01T05:11:44.171Z,22.50
2023-08-01T05:12:44.142Z,16.88
2023-08-01T05:13:44.140Z,16.88
2023-08-01T05:14:44.102Z,16.88
2023-08-01T05:15:44.086Z,11.25
2023-08-01T05:16:44.404Z,11.25
2023-08-01T05:17:44.088Z,22.50
2023-08-01T05:18:44.017Z,28.13
2023-08-01T05:19:44.006Z,33.75
2023-08-01T05:20:43.996Z,28.13
2023-08-01T05:21:43.974Z,39.38
2023-08-01T05:22:43.972Z,39.38
2023-08-01T05:23:43.926Z,28.13
2023-08-01T05:24:43.977Z,28.13
2023-08-01T05:25:43.909Z,39.38
2023-08-01T05:26:44.526Z,39.38
2023-08-01T05:27:44.540Z,39.38
2023-08-01T05:28:43.866Z,39.38
2023-08-01T05:29:43.846Z,33.75
2023-08-01T05:30:43.861Z,33.75
2023-08-01T05:31:43.800Z,33.75
2023-08-01T05:32:43.801Z,28.13
2023-08-01T05:33:43.724Z,22.50
2023-08-01T05:34:43.709Z,22.50
2023-08-01T05:35:43.710Z,22.50
2023-08-01T05:36:43.973Z,22.50
2023-08-01T05:37:43.643Z,28.13
2023-08-01T05:38:43.644Z,39.38
2023-08-01T05:39:43.633Z,50.63
2023-08-01T05:40:43.597Z,56.25
2023-08-01T05:41:43.568Z,67.50
2023-08-01T05:42:43.546Z,67.50
2023-08-01T05:43:43.542Z,73.13
2023-08-01T05:44:43.512Z,73.13
2023-08-01T05:45:43.489Z,78.75
2023-08-01T05:46:43.762Z,84.38
2023-08-01T05:47:43.474Z,90.00
2023-08-01T05:48:43.426Z,90.00
2023-08-01T05:49:43.411Z,95.63
2023-08-01T05:50:43.398Z,95.63
2023-08-01T05:51:43.374Z,101.25
2023-08-01T05:52:43.362Z,106.88
2023-08-01T05:53:43.331Z,101.25
2023-08-01T05:54:43.310Z,90.00
2023-08-01T05:55:43.280Z,90.00
2023-08-01T05:56:43.657Z,90.00
2023-08-01T05:57:43.242Z,84.38
2023-08-01T05:58:43.231Z,84.38
2023-08-01T05:59:43.213Z,95.63
2023-08-01T06:00:43.186Z,106.88
2023-08-01T06:01:43.225Z,123.75
2023-08-01T06:02:43.347Z,123.75
2023-08-01T06:03:43.239Z,129.38
2023-08-01T06:04:43.126Z,129.38
2023-08-01T06:05:43.097Z,106.88
2023-08-01T06:06:43.429Z,84.38
2023-08-01T06:07:43.049Z,84.38
2023-08-01T06:08:43.028Z,90.00
2023-08-01T06:09:43.013Z,90.00
2023-08-01T06:10:42.989Z,90.00
2023-08-01T06:11:42.974Z,90.00
2023-08-01T06:12:42.950Z,95.63
2023-08-01T06:13:42.928Z,101.25
2023-08-01T06:14:42.905Z,106.88
2023-08-01T06:15:42.888Z,112.50
2023-08-01T06:16:43.067Z,106.88
2023-08-01T06:17:42.866Z,112.50
2023-08-01T06:18:42.840Z,118.13
2023-08-01T06:19:42.809Z,123.75
2023-08-01T06:20:42.789Z,123.75
2023-08-01T06:21:42.782Z,123.75
2023-08-01T06:22:42.768Z,118.13
2023-08-01T06:23:42.730Z,118.13
2023-08-01T06:24:42.716Z,112.50
2023-08-01T06:25:42.717Z,112.50
2023-08-01T06:26:42.971Z,123.75
2023-08-01T06:27:42.661Z,140.63
2023-08-01T06:28:42.694Z,146.25
2023-08-01T06:29:42.621Z,163.13
2023-08-01T06:30:42.595Z,168.75
2023-08-01T06:31:42.618Z,174.38
2023-08-01T06:32:42.599Z,174.38
2023-08-01T06:33:42.549Z,185.63
2023-08-01T06:34:42.528Z,191.25
2023-08-01T06:35:42.513Z,180.00
2023-08-01T06:36:42.607Z,174.38
2023-08-01T06:37:42.462Z,180.00
2023-08-01T06:38:42.439Z,180.00
2023-08-01T06:39:42.430Z,191.25
2023-08-01T06:40:42.404Z,196.88
2023-08-01T06:41:42.403Z,208.13
2023-08-01T06:42:42.356Z,196.88
2023-08-01T06:43:42.398Z,191.25
2023-08-01T06:44:42.334Z,196.88
2023-08-01T06:45:42.302Z,225.00
2023-08-01T06:46:42.627Z,219.38
2023-08-01T06:47:42.307Z,230.63
2023-08-01T06:48:42.259Z,230.63
2023-08-01T06:49:42.240Z,225.00
2023-08-01T06:50:42.203Z,264.38
2023-08-01T06:51:42.186Z,225.00
2023-08-01T06:52:42.157Z,241.88
2023-08-01T06:53:42.164Z,225.00
2023-08-01T06:54:42.151Z,213.75
2023-08-01T06:55:42.109Z,202.50
2023-08-01T06:56:42.202Z,185.63
2023-08-01T06:57:42.076Z,174.38
2023-08-01T06:58:42.071Z,151.88
2023-08-01T06:59:42.067Z,140.63
2023-08-01T07:00:42.014Z,157.50
2023-08-01T07:01:42.048Z,157.50
2023-08-01T07:02:42.007Z,146.25
2023-08-01T07:03:42.037Z,168.75
2023-08-01T07:04:41.935Z,180.00
2023-08-01T07:05:41.922Z,225.00
2023-08-01T07:06:42.427Z,230.63
2023-08-01T07:07:41.872Z,236.25
2023-08-01T07:08:41.849Z,230.63
2023-08-01T07:09:41.844Z,208.13
2023-08-01T07:10:41.824Z,213.75
2023-08-01T07:11:41.796Z,219.38
2023-08-01T07:12:41.776Z,208.13
2023-08-01T07:13:41.794Z,185.63
2023-08-01T07:14:41.742Z,208.13
2023-08-01T07:15:41.758Z,213.75
2023-08-01T07:16:42.408Z,202.50
2023-08-01T07:17:41.713Z,213.75
2023-08-01T07:18:41.668Z,241.88
2023-08-01T07:19:41.645Z,309.38
2023-08-01T07:20:41.704Z,405.00
2023-08-01T07:21:41.618Z,376.88
2023-08-01T07:22:41.579Z,354.38
2023-08-01T07:23:41.571Z,421.88
2023-08-01T07:24:41.568Z,466.88
2023-08-01T07:25:41.543Z,438.75
2023-08-01T07:26:41.685Z,472.50
2023-08-01T07:27:41.542Z,455.63
2023-08-01T07:28:42.105Z,455.63
2023-08-01T07:29:41.469Z,438.75
2023-08-01T07:30:41.438Z,388.13
2023-08-01T07:31:41.541Z,326.25
2023-08-01T07:32:41.462Z,270.00
2023-08-01T07:33:41.404Z,343.13
2023-08-01T07:34:41.366Z,393.75
2023-08-01T07:35:41.356Z,483.75
2023-08-01T07:36:41.572Z,511.88
2023-08-01T07:37:41.315Z,478.13
2023-08-01T07:38:41.323Z,427.50
2023-08-01T07:39:41.277Z,382.50
2023-08-01T07:40:41.255Z,382.50
2023-08-01T07:41:41.246Z,393.75
2023-08-01T07:42:41.236Z,354.38
2023-08-01T07:43:41.240Z,298.13
2023-08-01T07:44:41.194Z,286.88
2023-08-01T07:45:41.177Z,247.50
2023-08-01T07:46:41.491Z,225.00
2023-08-01T07:47:41.156Z,191.25
2023-08-01T07:48:41.120Z,185.63
2023-08-01T07:49:41.098Z,157.50
2023-08-01T07:50:41.111Z,185.63
2023-08-01T07:51:41.053Z,225.00
2023-08-01T07:52:41.044Z,208.13
2023-08-01T07:53:41.017Z,163.13
2023-08-01T07:54:41.087Z,123.75
2023-08-01T07:55:40.980Z,78.75
2023-08-01T07:56:41.224Z,84.38
2023-08-01T07:57:40.934Z,73.13
2023-08-01T07:58:40.928Z,67.50
2023-08-01T07:59:40.908Z,73.13
2023-08-01T08:00:40.890Z,151.88
2023-08-01T08:01:40.947Z,230.63
2023-08-01T08:02:40.893Z,230.63
2023-08-01T08:03:40.861Z,208.13
2023-08-01T08:04:40.822Z,196.88
2023-08-01T08:05:40.806Z,247.50
2023-08-01T08:06:40.970Z,320.63
2023-08-01T08:07:40.748Z,382.50
2023-08-01T08:08:40.740Z,416.25
2023-08-01T08:09:40.720Z,421.88
2023-08-01T08:10:42.570Z,393.75
2023-08-01T08:11:40.696Z,371.25
2023-08-01T08:12:40.662Z,343.13
2023-08-01T08:13:40.642Z,303.75
2023-08-01T08:14:40.619Z,253.13
2023-08-01T08:15:40.686Z,225.00
2023-08-01T08:16:40.806Z,208.13
2023-08-01T08:17:40.593Z,185.63
2023-08-01T08:18:40.551Z,180.00
2023-08-01T08:19:40.525Z,185.63
2023-08-01T08:20:40.519Z,253.13
2023-08-01T08:21:40.496Z,399.38
2023-08-01T08:22:40.471Z,416.25
2023-08-01T08:23:40.455Z,551.25
2023-08-01T08:24:40.438Z,680.63
2023-08-01T08:25:40.446Z,753.75
2023-08-01T08:26:40.603Z,742.50
2023-08-01T08:27:40.372Z,804.38
2023-08-01T08:28:40.380Z,838.13
2023-08-01T08:29:40.345Z,810.00
2023-08-01T08:30:40.324Z,720.00
2023-08-01T08:31:40.362Z,618.75
2023-08-01T08:32:40.347Z,495.00
2023-08-01T08:33:40.301Z,478.13
2023-08-01T08:34:41.095Z,579.38
2023-08-01T08:35:40.243Z,534.38
2023-08-01T08:36:40.539Z,495.00
2023-08-01T08:37:40.202Z,511.88
2023-08-01T08:38:40.212Z,495.00
2023-08-01T08:39:40.174Z,511.88
2023-08-01T08:40:40.154Z,511.88
2023-08-01T08:41:40.133Z,523.13
2023-08-01T08:42:40.126Z,506.25
2023-08-01T08:43:40.117Z,461.25
2023-08-01T08:44:40.095Z,421.88
2023-08-01T08:45:40.068Z,388.13
2023-08-01T08:46:40.351Z,371.25
2023-08-01T08:47:40.055Z,331.88
2023-08-01T08:48:40.020Z,371.25
2023-08-01T08:49:40.023Z,455.63
2023-08-01T08:50:40.001Z,438.75
2023-08-01T08:51:39.984Z,410.63
2023-08-01T08:52:39.970Z,365.63
2023-08-01T08:53:39.936Z,382.50
2023-08-01T08:54:39.932Z,461.25
2023-08-01T08:55:39.929Z,444.38
2023-08-01T08:56:40.233Z,455.63
2023-08-01T08:57:39.889Z,562.50
2023-08-01T08:58:39.870Z,669.38
2023-08-01T08:59:39.843Z,770.63
2023-08-01T09:00:39.980Z,911.25
2023-08-01T09:01:39.822Z,928.13
2023-08-01T09:02:39.811Z,922.50
2023-08-01T09:03:39.790Z,945.00
2023-08-01T09:04:39.777Z,1006.88
2023-08-01T09:05:39.748Z,1074.38
2023-08-01T09:06:40.015Z,1096.88
2023-08-01T09:07:39.738Z,1119.38
2023-08-01T09:08:39.704Z,1102.50
2023-08-01T09:09:39.700Z,1113.75
2023-08-01T09:10:39.687Z,1113.75
2023-08-01T09:11:39.658Z,1141.88
2023-08-01T09:12:39.662Z,1125.00
2023-08-01T09:13:39.657Z,1091.25
2023-08-01T09:14:39.620Z,1091.25
2023-08-01T09:15:39.607Z,1091.25
2023-08-01T09:16:39.878Z,1068.75
2023-08-01T09:17:39.612Z,1063.13
2023-08-01T09:18:39.557Z,1035.00
2023-08-01T09:19:39.545Z,995.63
2023-08-01T09:20:39.538Z,916.88
2023-08-01T09:21:39.537Z,883.13
2023-08-01T09:22:39.507Z,911.25
2023-08-01T09:23:39.486Z,877.50
2023-08-01T09:24:39.487Z,720.00
2023-08-01T09:25:39.482Z,669.38
2023-08-01T09:26:39.730Z,703.13
2023-08-01T09:27:39.435Z,826.88
2023-08-01T09:28:39.482Z,832.50
2023-08-01T09:29:39.402Z,725.63
2023-08-01T09:30:39.388Z,658.13
2023-08-01T09:31:39.374Z,748.13
2023-08-01T09:32:39.423Z,663.75
2023-08-01T09:33:39.366Z,528.75
2023-08-01T09:34:39.330Z,472.50
2023-08-01T09:35:39.335Z,365.63
2023-08-01T09:36:39.494Z,376.88
2023-08-01T09:37:39.335Z,337.50
2023-08-01T09:38:39.275Z,331.88
2023-08-01T09:39:39.257Z,354.38
2023-08-01T09:40:39.252Z,360.00
2023-08-01T09:41:39.234Z,416.25
2023-08-01T09:42:39.242Z,517.50
2023-08-01T09:43:39.199Z,517.50
2023-08-01T09:44:39.189Z,691.88
2023-08-01T09:45:39.153Z,810.00
2023-08-01T09:46:39.443Z,995.63
2023-08-01T09:47:39.160Z,1012.50
2023-08-01T09:48:39.115Z,990.00
2023-08-01T09:49:39.093Z,860.63
2023-08-01T09:50:39.082Z,776.25
2023-08-01T09:51:39.057Z,776.25
2023-08-01T09:52:39.049Z,753.75
2023-08-01T09:53:39.045Z,753.75
2023-08-01T09:54:39.036Z,894.38
2023-08-01T09:55:39.020Z,990.00
2023-08-01T09:56:39.337Z,1153.13
2023-08-01T09:57:38.984Z,1198.13
2023-08-01T09:58:38.962Z,961.88
2023-08-01T09:59:38.930Z,832.50
2023-08-01T10:00:38.968Z,765.00
2023-08-01T10:01:38.957Z,556.88
2023-08-01T10:02:38.975Z,472.50
2023-08-01T10:03:38.963Z,472.50
2023-08-01T10:04:38.893Z,444.38
2023-08-01T10:05:38.861Z,421.88
2023-08-01T10:06:39.311Z,410.63
2023-08-01T10:07:38.831Z,466.88
2023-08-01T10:08:38.836Z,646.88
2023-08-01T10:09:38.823Z,793.13
2023-08-01T10:10:38.795Z,883.13
2023-08-01T10:11:38.756Z,810.00
2023-08-01T10:12:38.771Z,877.50
2023-08-01T10:13:38.747Z,933.75
2023-08-01T10:14:38.721Z,933.75
2023-08-01T10:15:38.697Z,1001.25
2023-08-01T10:16:39.172Z,1051.88
2023-08-01T10:17:38.740Z,1096.88
2023-08-01T10:18:38.656Z,1153.13
2023-08-01T10:19:38.659Z,1170.00
2023-08-01T10:20:38.650Z,1276.88
2023-08-01T10:21:38.606Z,995.63
2023-08-01T10:22:38.601Z,945.00
2023-08-01T10:23:38.580Z,1209.38
2023-08-01T10:24:38.593Z,1355.63
2023-08-01T10:25:38.570Z,1130.63
2023-08-01T10:26:38.910Z,1231.88
2023-08-01T10:27:38.542Z,1141.88
2023-08-01T10:28:38.575Z,1192.50
2023-08-01T10:29:38.516Z,1023.75
2023-08-01T10:30:38.512Z,900.00
2023-08-01T10:31:38.537Z,1299.38
2023-08-01T10:32:38.505Z,883.13
2023-08-01T10:33:38.458Z,624.38
2023-08-01T10:34:38.438Z,641.25
2023-08-01T10:35:38.470Z,787.50
2023-08-01T10:36:38.421Z,1040.63
2023-08-01T10:37:38.407Z,978.75
2023-08-01T10:38:38.394Z,973.13
2023-08-01T10:39:38.381Z,1816.88
2023-08-01T10:40:38.373Z,1035.00
2023-08-01T10:41:38.553Z,1980.00
2023-08-01T10:42:38.341Z,2165.63
2023-08-01T10:43:38.352Z,1957.50
2023-08-01T10:44:38.311Z,1108.13
2023-08-01T10:45:38.325Z,1991.25
2023-08-01T10:46:38.294Z,1305.00
2023-08-01T10:47:38.309Z,871.88
2023-08-01T10:48:38.306Z,2671.88
2023-08-01T10:49:38.248Z,2424.38
2023-08-01T10:50:38.237Z,2396.25
2023-08-01T10:51:38.617Z,2553.75
2023-08-01T10:52:38.231Z,2199.38
2023-08-01T10:53:41.899Z,2508.75
2023-08-01T10:54:38.207Z,2351.25
2023-08-01T10:55:38.180Z,2610.00
2023-08-01T10:56:38.170Z,2666.25
2023-08-01T10:57:38.166Z,1642.50
2023-08-01T10:58:38.158Z,2520.00
2023-08-01T10:59:38.125Z,2486.25
2023-08-01T11:00:38.154Z,2441.25
2023-08-01T11:01:38.139Z,2475.00
2023-08-01T11:02:38.204Z,2210.63
2023-08-01T11:03:38.176Z,2497.50
2023-08-01T11:04:38.100Z,2598.75
2023-08-01T11:05:38.077Z,2413.13
2023-08-01T11:06:38.081Z,2565.00
2023-08-01T11:07:38.064Z,2469.38
2023-08-01T11:08:38.057Z,2452.50
2023-08-01T11:09:38.038Z,2430.00
2023-08-01T11:10:38.036Z,2362.50
2023-08-01T11:11:38.037Z,1265.63
2023-08-01T11:12:38.025Z,3048.75
2023-08-01T11:13:38.055Z,2581.88
2023-08-01T11:14:38.013Z,1591.88
2023-08-01T11:15:38.025Z,2379.38
2023-08-01T11:16:38.009Z,1895.63
2023-08-01T11:17:38.041Z,2739.38
2023-08-01T11:18:37.975Z,3110.63
2023-08-01T11:19:37.971Z,3234.38
2023-08-01T11:20:37.960Z,3369.38
2023-08-01T11:21:37.957Z,3684.38
2023-08-01T11:22:37.942Z,3881.25
2023-08-01T11:23:37.932Z,4156.88
2023-08-01T11:24:37.925Z,4438.13
2023-08-01T11:25:37.939Z,4438.13
2023-08-01T11:26:37.922Z,2818.13
2023-08-01T11:27:37.911Z,4567.50
2023-08-01T11:28:37.922Z,4719.38
2023-08-01T11:29:37.894Z,4410.00
2023-08-01T11:30:37.892Z,4415.63
2023-08-01T11:31:37.893Z,4466.25
2023-08-01T11:32:37.970Z,4393.13
2023-08-01T11:33:37.875Z,4291.88
2023-08-01T11:34:37.852Z,4500.00
2023-08-01T11:35:37.867Z,4213.13
2023-08-01T11:36:37.844Z,2626.88
2023-08-01T11:37:37.849Z,3065.63
2023-08-01T11:38:37.837Z,4325.63
2023-08-01T11:39:37.827Z,3048.75
2023-08-01T11:40:37.818Z,2694.38
2023-08-01T11:41:37.846Z,4646.25
2023-08-01T11:42:37.805Z,4010.63
2023-08-01T11:43:38.692Z,3830.63
2023-08-01T11:44:37.808Z,4561.88
2023-08-01T11:45:37.817Z,4477.50
2023-08-01T11:46:37.774Z,1130.63
2023-08-01T11:47:37.787Z,1867.50
2023-08-01T11:48:37.769Z,1428.75
2023-08-01T11:49:37.766Z,1293.75
2023-08-01T11:50:37.754Z,1586.25
2023-08-01T11:51:37.742Z,1327.50
2023-08-01T11:52:37.740Z,3740.63
2023-08-01T11:53:37.768Z,3960.00
2023-08-01T11:54:37.741Z,3960.00
2023-08-01T11:55:37.721Z,2941.88
2023-08-01T11:56:37.843Z,4246.88
2023-08-01T11:57:37.709Z,3926.25
2023-08-01T11:58:37.714Z,4218.75
2023-08-01T11:59:37.686Z,4061.25
2023-08-01T12:00:37.671Z,3386.25
2023-08-01T12:01:37.678Z,3296.25
2023-08-01T12:02:37.738Z,2913.75
2023-08-01T12:03:37.676Z,2835.00
2023-08-01T12:04:37.650Z,2874.38
2023-08-01T12:05:37.688Z,2874.38
2023-08-01T12:06:37.680Z,3015.00
2023-08-01T12:07:37.630Z,2913.75
2023-08-01T12:08:37.625Z,3105.00
2023-08-01T12:09:37.639Z,3065.63
2023-08-01T12:10:37.608Z,2835.00
2023-08-01T12:11:37.603Z,2756.25
2023-08-01T12:12:37.593Z,3150.00
2023-08-01T12:13:37.600Z,3448.13
2023-08-01T12:14:37.573Z,3931.88
2023-08-01T12:15:37.679Z,3313.13
2023-08-01T12:16:37.602Z,3931.88
2023-08-01T12:17:37.566Z,4095.00
2023-08-01T12:19:37.558Z,3346.88
2023-08-01T12:20:37.545Z,3526.88
2023-08-01T12:21:37.556Z,3183.75
2023-08-01T12:22:37.529Z,3296.25
2023-08-01T12:23:37.531Z,2998.13
2023-08-01T12:24:37.510Z,3768.75
2023-08-01T12:25:37.509Z,3555.00
2023-08-01T12:26:37.490Z,3217.50
2023-08-01T12:27:37.517Z,3200.63
2023-08-01T12:28:37.496Z,2671.88
2023-08-01T12:29:37.494Z,2908.13
2023-08-01T12:30:37.478Z,1558.13
2023-08-01T12:31:37.503Z,1456.88
2023-08-01T12:32:37.481Z,2823.75
2023-08-01T12:33:37.449Z,1659.38
2023-08-01T12:34:37.466Z,1541.25
2023-08-01T12:35:37.447Z,3684.38
2023-08-01T12:36:37.487Z,3780.00
2023-08-01T12:37:37.433Z,3960.00
2023-08-01T12:38:37.433Z,3605.63
2023-08-01T12:39:37.409Z,3780.00
2023-08-01T12:40:37.443Z,3751.88
2023-08-01T12:41:37.399Z,3768.75
2023-08-01T12:42:37.391Z,3712.50
2023-08-01T12:43:37.382Z,2486.25
2023-08-01T12:44:37.377Z,3549.38